Time;durP1;ratioP1;P1;durP2;ratioP2;P2;SDS_P1;SDS_P2;PMS_P1;PMS_P2;Temp;Humidity;BMP_temperature;BMP_pressure;BME280_temperature;BME280_humidity;BME280_pressure;Samples;Min_cycle;Max_cycle;Signal;HPM_P1;HPM_P2
2021/08/25 00:00:27;;;;;;;4.07;1.17;;;;;;;;;;5067260;28;20508;-53
2021/08/25 00:02:53;;;;;;;3.83;1.10;;;;;;;;;;5067410;28;20040;-56
2021/08/25 00:05:18;;;;;;;2.58;0.80;;;;;;;;;;5081405;28;20512;-56
2021/08/25 00:07:44;;;;;;;3.20;1.30;;;;;;;;;;5087270;28;20086;-54
2021/08/25 00:10:10;;;;;;;3.63;1.10;;;;;;;;;;5085902;28;20039;-53
2021/08/25 00:12:36;;;;;;;3.25;1.02;;;;;;;;;;5066655;28;20025;-55
2021/08/25 00:15:03;;;;;;;3.13;0.90;;;;;;;;;;5067467;28;20504;-55
2021/08/25 00:17:29;;;;;;;2.58;0.90;;;;;;;;;;5065909;28;20070;-52
2021/08/25 00:19:54;;;;;;;3.28;1.05;;;;;;;;;;5067989;28;20039;-54
2021/08/25 00:22:20;;;;;;;3.10;1.10;;;;;;;;;;5067001;28;20049;-55
2021/08/25 00:24:46;;;;;;;3.03;1.00;;;;;;;;;;5067397;28;20029;-55
2021/08/25 00:27:12;;;;;;;3.88;1.00;;;;;;;;;;5083768;28;20048;-54
2021/08/25 00:29:38;;;;;;;3.95;1.13;;;;;;;;;;5088993;28;20158;-53
2021/08/25 00:32:04;;;;;;;4.40;1.88;;;;;;;;;;5086456;28;20123;-55
2021/08/25 00:34:29;;;;;;;2.42;0.98;;;;;;;;;;5068599;28;20055;-56
2021/08/25 00:36:55;;;;;;;3.10;1.00;;;;;;;;;;5068296;28;20037;-55
2021/08/25 00:39:21;;;;;;;4.05;1.40;;;;;;;;;;5068139;28;20055;-54
2021/08/25 00:41:47;;;;;;;2.95;1.00;;;;;;;;;;5068151;28;20121;-55
2021/08/25 00:44:13;;;;;;;7.40;1.10;;;;;;;;;;5094111;28;20033;-55
2021/08/25 00:46:38;;;;;;;3.30;1.08;;;;;;;;;;5067759;28;20889;-55
2021/08/25 00:49:04;;;;;;;3.50;1.42;;;;;;;;;;5069879;28;20040;-56
2021/08/25 00:51:30;;;;;;;3.50;1.58;;;;;;;;;;5067190;28;20564;-52
2021/08/25 00:53:56;;;;;;;4.57;1.13;;;;;;;;;;5072570;28;20043;-55
2021/08/25 00:56:22;;;;;;;2.72;0.90;;;;;;;;;;5071443;28;20056;-54
2021/08/25 00:58:49;;;;;;;3.63;0.88;;;;;;;;;;5067216;28;20110;-55
2021/08/25 01:01:27;;;;;;;2.83;1.10;;;;;;;;;;5067087;28;20516;-55
2021/08/25 01:03:57;;;;;;;3.80;1.20;;;;;;;;;;5067020;28;20032;-54
2021/08/25 01:06:24;;;;;;;4.55;1.33;;;;;;;;;;5066708;28;20037;-55
2021/08/25 01:08:50;;;;;;;3.67;1.02;;;;;;;;;;5061354;28;20033;-54
2021/08/25 01:11:16;;;;;;;2.65;0.90;;;;;;;;;;5068963;28;20740;-55
2021/08/25 01:13:41;;;;;;;4.00;1.08;;;;;;;;;;5065578;28;20040;-55
2021/08/25 01:16:08;;;;;;;2.70;0.88;;;;;;;;;;5063415;28;20040;-56
2021/08/25 01:18:34;;;;;;;2.42;0.90;;;;;;;;;;5057800;28;20040;-53
2021/08/25 01:21:00;;;;;;;4.90;1.30;;;;;;;;;;5064846;28;20044;-52
2021/08/25 01:23:27;;;;;;;3.15;1.10;;;;;;;;;;5061920;28;20094;-52
2021/08/25 01:25:56;;;;;;;3.67;1.15;;;;;;;;;;5052283;28;20067;-55
2021/08/25 01:28:23;;;;;;;5.35;1.30;;;;;;;;;;5063050;28;20060;-53
2021/08/25 01:30:49;;;;;;;4.05;1.15;;;;;;;;;;5058591;28;20125;-55
2021/08/25 01:33:22;;;;;;;2.97;1.05;;;;;;;;;;5064781;28;20093;-56
2021/08/25 01:35:47;;;;;;;11.45;1.30;;;;;;;;;;5065529;28;20028;-56
2021/08/25 01:38:26;;;;;;;12.98;1.80;;;;;;;;;;5065636;28;20040;-56
2021/08/25 01:40:52;;;;;;;4.20;1.02;;;;;;;;;;5061758;28;20136;-56
2021/08/25 01:43:17;;;;;;;5.65;1.33;;;;;;;;;;5058519;28;20120;-54
2021/08/25 01:45:43;;;;;;;3.45;1.10;;;;;;;;;;5067180;28;20033;-54
2021/08/25 01:48:09;;;;;;;2.60;0.80;;;;;;;;;;5065281;28;20058;-55
2021/08/25 01:50:35;;;;;;;5.88;1.08;;;;;;;;;;5068588;28;20544;-56
2021/08/25 01:53:01;;;;;;;3.13;0.98;;;;;;;;;;5059860;28;20086;-56
2021/08/25 01:55:27;;;;;;;3.38;1.17;;;;;;;;;;5056934;28;20354;-56
2021/08/25 01:57:52;;;;;;;3.55;1.00;;;;;;;;;;5059387;28;20155;-52
2021/08/25 02:00:18;;;;;;;3.92;1.10;;;;;;;;;;5062365;28;20493;-54
2021/08/25 02:02:44;;;;;;;3.45;1.20;;;;;;;;;;5064045;28;20094;-55
2021/08/25 02:05:10;;;;;;;4.28;1.45;;;;;;;;;;5064801;28;20040;-54
2021/08/25 02:07:35;;;;;;;3.33;1.30;;;;;;;;;;5059949;28;20135;-55
2021/08/25 02:10:02;;;;;;;3.75;1.20;;;;;;;;;;5057535;28;20068;-56
2021/08/25 02:12:27;;;;;;;2.65;0.93;;;;;;;;;;5054342;28;20139;-56
2021/08/25 02:14:53;;;;;;;4.07;1.52;;;;;;;;;;5056174;28;20170;-52
2021/08/25 02:17:19;;;;;;;3.20;1.30;;;;;;;;;;5054614;28;20040;-56
2021/08/25 02:19:45;;;;;;;3.85;1.02;;;;;;;;;;5054719;28;20492;-55
2021/08/25 02:22:10;;;;;;;5.57;1.73;;;;;;;;;;5056924;28;20045;-55
2021/08/25 02:24:36;;;;;;;4.28;1.23;;;;;;;;;;5054521;28;20067;-55
2021/08/25 02:27:02;;;;;;;4.10;1.33;;;;;;;;;;5055519;28;20059;-55
2021/08/25 02:29:28;;;;;;;3.67;1.30;;;;;;;;;;5065034;28;20048;-55
2021/08/25 02:31:54;;;;;;;4.97;1.20;;;;;;;;;;5067803;28;20489;-56
2021/08/25 02:34:20;;;;;;;4.80;1.90;;;;;;;;;;5096705;28;20041;-56
2021/08/25 02:36:46;;;;;;;4.13;1.50;;;;;;;;;;5061332;28;20507;-56
2021/08/25 02:39:12;;;;;;;5.35;1.48;;;;;;;;;;5068578;28;20036;-54
2021/08/25 02:41:37;;;;;;;4.68;1.63;;;;;;;;;;5067403;28;20062;-56
2021/08/25 02:44:03;;;;;;;5.25;1.55;;;;;;;;;;5069707;28;20029;-57
2021/08/25 02:46:29;;;;;;;4.95;1.90;;;;;;;;;;5052201;28;20049;-55
2021/08/25 02:48:55;;;;;;;6.32;2.20;;;;;;;;;;5065785;28;20492;-54
2021/08/25 02:51:21;;;;;;;5.47;2.03;;;;;;;;;;5068273;28;20040;-56
2021/08/25 02:53:47;;;;;;;8.68;2.13;;;;;;;;;;5069017;28;20113;-55
2021/08/25 02:56:12;;;;;;;5.10;2.13;;;;;;;;;;5068324;28;20472;-54
2021/08/25 02:58:38;;;;;;;7.25;2.38;;;;;;;;;;5067016;28;20029;-55
2021/08/25 03:01:04;;;;;;;5.00;1.70;;;;;;;;;;5065099;28;20045;-52
2021/08/25 03:03:30;;;;;;;4.75;1.88;;;;;;;;;;5068457;28;20031;-55
2021/08/25 03:05:55;;;;;;;6.28;1.55;;;;;;;;;;5059970;28;20048;-56
2021/08/25 03:08:21;;;;;;;4.88;1.55;;;;;;;;;;5046947;28;20935;-55
2021/08/25 03:10:47;;;;;;;3.70;1.58;;;;;;;;;;5047464;28;20154;-53
2021/08/25 03:13:13;;;;;;;5.22;1.70;;;;;;;;;;5065163;28;20141;-56
2021/08/25 03:15:39;;;;;;;4.03;1.60;;;;;;;;;;5067419;28;20115;-55
2021/08/25 03:18:05;;;;;;;6.68;1.50;;;;;;;;;;5066981;28;20139;-55
2021/08/25 03:20:31;;;;;;;5.18;1.75;;;;;;;;;;5060876;28;20052;-55
2021/08/25 03:22:56;;;;;;;5.38;2.03;;;;;;;;;;5066016;28;20032;-55
2021/08/25 03:25:22;;;;;;;5.90;1.90;;;;;;;;;;5058120;28;20033;-53
2021/08/25 03:27:48;;;;;;;4.40;1.50;;;;;;;;;;5065353;28;20043;-54
2021/08/25 03:30:14;;;;;;;6.20;1.65;;;;;;;;;;5067670;28;20047;-53
2021/08/25 03:32:40;;;;;;;4.95;1.75;;;;;;;;;;5067034;28;20044;-55
2021/08/25 03:35:06;;;;;;;5.25;1.92;;;;;;;;;;5067551;28;20039;-55
2021/08/25 03:37:31;;;;;;;4.90;2.00;;;;;;;;;;5066819;28;20036;-56
2021/08/25 03:39:57;;;;;;;5.85;1.63;;;;;;;;;;5067637;28;20068;-54
2021/08/25 03:42:23;;;;;;;6.85;2.17;;;;;;;;;;5067616;28;20037;-54
2021/08/25 03:44:49;;;;;;;3.63;1.58;;;;;;;;;;5068847;28;20038;-53
2021/08/25 03:47:15;;;;;;;3.63;1.50;;;;;;;;;;5067799;28;20032;-52
2021/08/25 03:49:42;;;;;;;6.90;1.92;;;;;;;;;;5067668;28;20048;-55
2021/08/25 03:52:08;;;;;;;6.00;1.42;;;;;;;;;;5067893;28;20722;-56
2021/08/25 03:54:34;;;;;;;4.45;1.88;;;;;;;;;;5067803;28;20036;-55
2021/08/25 03:57:00;;;;;;;7.88;2.00;;;;;;;;;;5098908;28;20040;-54
2021/08/25 03:59:27;;;;;;;5.00;1.70;;;;;;;;;;5099020;28;20048;-52
2021/08/25 04:01:53;;;;;;;4.38;1.70;;;;;;;;;;5067409;28;20048;-55
2021/08/25 04:04:19;;;;;;;4.63;1.77;;;;;;;;;;5066788;28;20054;-55
2021/08/25 04:06:45;;;;;;;8.18;1.73;;;;;;;;;;5067174;28;20040;-55
2021/08/25 04:09:11;;;;;;;4.75;1.63;;;;;;;;;;5057140;28;20045;-55
2021/08/25 04:11:36;;;;;;;6.88;2.08;;;;;;;;;;5054021;28;20039;-55
2021/08/25 04:14:02;;;;;;;4.35;1.88;;;;;;;;;;5055765;28;20068;-54
2021/08/25 04:16:29;;;;;;;3.85;1.75;;;;;;;;;;5055225;28;20799;-54
2021/08/25 04:18:56;;;;;;;4.25;1.80;;;;;;;;;;5055114;28;20099;-55
2021/08/25 04:21:22;;;;;;;6.40;1.90;;;;;;;;;;5055414;28;20052;-54
2021/08/25 04:23:48;;;;;;;6.68;1.98;;;;;;;;;;5057229;28;20036;-54
2021/08/25 04:26:14;;;;;;;6.85;2.35;;;;;;;;;;5058676;28;20028;-55
2021/08/25 04:28:40;;;;;;;5.05;2.15;;;;;;;;;;5058122;28;20109;-55
2021/08/25 04:31:08;;;;;;;5.72;2.25;;;;;;;;;;5059592;28;20032;-55
2021/08/25 04:33:35;;;;;;;6.63;2.30;;;;;;;;;;5058636;28;20045;-52
2021/08/25 04:36:01;;;;;;;6.68;2.20;;;;;;;;;;5060101;28;20108;-54
2021/08/25 04:38:27;;;;;;;5.32;2.40;;;;;;;;;;5058268;28;20399;-53
2021/08/25 04:40:56;;;;;;;5.40;2.33;;;;;;;;;;5092380;28;20055;-53
2021/08/25 04:43:22;;;;;;;5.65;2.22;;;;;;;;;;5056092;28;20040;-54
2021/08/25 04:45:48;;;;;;;8.23;2.42;;;;;;;;;;5060543;28;20039;-55
2021/08/25 04:48:13;;;;;;;5.32;2.53;;;;;;;;;;5057514;28;20041;-55
2021/08/25 04:50:39;;;;;;;9.05;2.60;;;;;;;;;;5058849;28;20033;-55
2021/08/25 04:53:07;;;;;;;7.97;2.60;;;;;;;;;;5059902;28;20599;-55
2021/08/25 04:55:36;;;;;;;4.82;2.15;;;;;;;;;;5059426;28;20473;-54
2021/08/25 04:58:02;;;;;;;5.53;2.35;;;;;;;;;;5057248;28;20052;-53
2021/08/25 05:00:28;;;;;;;7.38;2.40;;;;;;;;;;5059056;28;20119;-55
2021/08/25 05:02:54;;;;;;;7.18;2.55;;;;;;;;;;5058731;28;20032;-52
2021/08/25 05:05:19;;;;;;;4.90;2.10;;;;;;;;;;5059244;28;20045;-55
2021/08/25 05:07:45;;;;;;;6.82;2.22;;;;;;;;;;5060034;28;20037;-53
2021/08/25 05:10:11;;;;;;;7.75;2.58;;;;;;;;;;5057070;28;20048;-51
2021/08/25 05:12:37;;;;;;;6.78;2.40;;;;;;;;;;5058492;28;20041;-55
2021/08/25 05:15:04;;;;;;;4.78;2.13;;;;;;;;;;5060186;28;20062;-52
2021/08/25 05:17:30;;;;;;;5.63;2.10;;;;;;;;;;5058698;28;20484;-54
2021/08/25 05:19:58;;;;;;;5.57;2.25;;;;;;;;;;5092303;28;20055;-55
2021/08/25 05:22:24;;;;;;;4.82;2.42;;;;;;;;;;5059355;28;20064;-53
2021/08/25 05:24:50;;;;;;;6.63;2.40;;;;;;;;;;5060699;28;20066;-54
2021/08/25 05:27:16;;;;;;;5.15;2.22;;;;;;;;;;5060324;28;20037;-55
2021/08/25 05:29:41;;;;;;;4.93;2.33;;;;;;;;;;5060189;28;20042;-55
2021/08/25 05:32:07;;;;;;;4.28;2.30;;;;;;;;;;5061035;28;20047;-54
2021/08/25 05:34:33;;;;;;;5.82;2.30;;;;;;;;;;5059293;28;20060;-55
2021/08/25 05:36:59;;;;;;;4.95;2.08;;;;;;;;;;5061973;28;20436;-54
2021/08/25 05:39:24;;;;;;;5.50;2.30;;;;;;;;;;5058242;28;20036;-55
2021/08/25 05:41:50;;;;;;;5.70;2.35;;;;;;;;;;5059592;28;20106;-54
2021/08/25 05:44:16;;;;;;;9.52;2.50;;;;;;;;;;5058287;28;20033;-53
2021/08/25 05:46:42;;;;;;;5.70;2.33;;;;;;;;;;5057077;28;20177;-55
2021/08/25 05:49:07;;;;;;;5.40;1.67;;;;;;;;;;5057896;28;20032;-54
2021/08/25 05:51:33;;;;;;;5.93;2.47;;;;;;;;;;5057355;28;20237;-53
2021/08/25 05:53:59;;;;;;;6.35;2.30;;;;;;;;;;5059603;28;20037;-55
2021/08/25 05:56:25;;;;;;;5.18;2.47;;;;;;;;;;5058461;28;20081;-54
2021/08/25 05:58:51;;;;;;;5.50;2.30;;;;;;;;;;5059191;28;20033;-54
2021/08/25 06:01:16;;;;;;;4.60;2.13;;;;;;;;;;5058046;28;20063;-53
2021/08/25 06:03:42;;;;;;;4.57;2.17;;;;;;;;;;5058693;28;20418;-53
2021/08/25 06:06:11;;;;;;;4.28;1.95;;;;;;;;;;5059036;28;20036;-55
2021/08/25 06:08:37;;;;;;;6.35;2.35;;;;;;;;;;5057708;28;20035;-53
2021/08/25 06:11:02;;;;;;;6.72;2.40;;;;;;;;;;5056858;28;20468;-55
2021/08/25 06:13:28;;;;;;;5.25;2.45;;;;;;;;;;5056844;28;20036;-55
2021/08/25 06:15:54;;;;;;;10.23;2.45;;;;;;;;;;5057857;28;20032;-55
2021/08/25 06:18:20;;;;;;;5.15;2.20;;;;;;;;;;5056958;28;20046;-52
2021/08/25 06:20:46;;;;;;;7.10;2.78;;;;;;;;;;5057621;28;20083;-55
2021/08/25 06:23:12;;;;;;;5.25;2.33;;;;;;;;;;5058361;28;20124;-54
2021/08/25 06:25:39;;;;;;;5.45;2.58;;;;;;;;;;5057079;28;20057;-54
2021/08/25 06:28:05;;;;;;;6.80;2.80;;;;;;;;;;5054786;28;20033;-53
2021/08/25 06:30:31;;;;;;;7.00;2.47;;;;;;;;;;5057029;28;20153;-53
2021/08/25 06:32:57;;;;;;;5.93;2.55;;;;;;;;;;5057762;28;20044;-54
2021/08/25 06:35:23;;;;;;;5.47;2.60;;;;;;;;;;5057698;28;20036;-53
2021/08/25 06:37:49;;;;;;;5.18;2.45;;;;;;;;;;5055760;28;20128;-55
2021/08/25 06:40:15;;;;;;;7.75;2.90;;;;;;;;;;5052003;28;20069;-54
2021/08/25 06:42:42;;;;;;;6.95;2.65;;;;;;;;;;5036575;28;20045;-54
2021/08/25 06:45:11;;;;;;;5.78;2.58;;;;;;;;;;5036788;28;20040;-54
2021/08/25 06:47:37;;;;;;;6.10;2.63;;;;;;;;;;5035727;28;20064;-55
2021/08/25 06:50:04;;;;;;;4.88;2.47;;;;;;;;;;5037712;28;20445;-54
2021/08/25 06:52:30;;;;;;;7.57;2.80;;;;;;;;;;5036915;28;20037;-51
2021/08/25 06:54:56;;;;;;;7.18;2.92;;;;;;;;;;5036616;28;20033;-55
2021/08/25 06:57:21;;;;;;;5.88;2.70;;;;;;;;;;5035909;28;20492;-52
2021/08/25 06:59:47;;;;;;;7.07;2.95;;;;;;;;;;5037036;28;20036;-53
2021/08/25 07:02:13;;;;;;;6.57;2.67;;;;;;;;;;5036812;28;20108;-53
2021/08/25 07:04:46;;;;;;;6.00;3.05;;;;;;;;;;5037037;28;20442;-54
2021/08/25 07:07:12;;;;;;;5.80;2.70;;;;;;;;;;5036178;28;20048;-53
2021/08/25 07:09:38;;;;;;;7.10;3.47;;;;;;;;;;5036840;28;20052;-52
2021/08/25 07:12:04;;;;;;;6.00;2.90;;;;;;;;;;5035938;28;20037;-53
2021/08/25 07:14:30;;;;;;;7.28;2.60;;;;;;;;;;5036832;28;20037;-53
2021/08/25 07:16:56;;;;;;;8.23;2.58;;;;;;;;;;5036981;28;20044;-53
2021/08/25 07:19:22;;;;;;;8.32;3.25;;;;;;;;;;5035327;28;20039;-55
2021/08/25 07:21:48;;;;;;;9.20;2.55;;;;;;;;;;5037155;28;20486;-55
2021/08/25 07:24:13;;;;;;;6.93;3.28;;;;;;;;;;5037818;28;20033;-54
2021/08/25 07:26:40;;;;;;;6.05;2.90;;;;;;;;;;5035987;28;20124;-51
2021/08/25 07:29:06;;;;;;;7.75;2.83;;;;;;;;;;5033361;28;20049;-55
2021/08/25 07:31:31;;;;;;;6.47;2.97;;;;;;;;;;5035983;28;20041;-55
2021/08/25 07:33:57;;;;;;;13.35;3.10;;;;;;;;;;5035322;28;20043;-55
2021/08/25 07:36:23;;;;;;;9.02;3.35;;;;;;;;;;5036634;28;21789;-53
2021/08/25 07:38:50;;;;;;;9.07;3.80;;;;;;;;;;5037325;28;20068;-52
2021/08/25 07:41:15;;;;;;;6.65;3.45;;;;;;;;;;5052144;28;20973;-55
2021/08/25 07:43:41;;;;;;;6.80;3.35;;;;;;;;;;5057840;28;20050;-52
2021/08/25 07:46:07;;;;;;;6.85;3.65;;;;;;;;;;5057650;28;20146;-54
2021/08/25 07:48:33;;;;;;;7.85;3.22;;;;;;;;;;5056231;28;20117;-54
2021/08/25 07:50:59;;;;;;;7.03;3.20;;;;;;;;;;5058041;28;20047;-52
2021/08/25 07:53:25;;;;;;;6.68;3.15;;;;;;;;;;5055155;28;20060;-55
2021/08/25 07:55:51;;;;;;;9.40;3.60;;;;;;;;;;5056223;28;20048;-55
2021/08/25 07:58:17;;;;;;;9.45;3.58;;;;;;;;;;5058290;28;20037;-54
2021/08/25 08:00:43;;;;;;;6.80;3.25;;;;;;;;;;5061540;28;20106;-54
2021/08/25 08:03:09;;;;;;;9.75;3.25;;;;;;;;;;5061067;28;20040;-54
2021/08/25 08:05:35;;;;;;;8.15;3.40;;;;;;;;;;5060202;28;20044;-54
2021/08/25 08:08:00;;;;;;;6.15;3.03;;;;;;;;;;5057061;28;20713;-53
2021/08/25 08:10:26;;;;;;;7.43;3.25;;;;;;;;;;5059924;28;20090;-55
2021/08/25 08:12:52;;;;;;;7.88;3.45;;;;;;;;;;5060175;28;20162;-53
2021/08/25 08:15:19;;;;;;;6.18;3.08;;;;;;;;;;5059673;28;20089;-53
2021/08/25 08:17:47;;;;;;;7.60;3.63;;;;;;;;;;5059504;28;20071;-55
2021/08/25 08:20:14;;;;;;;6.53;3.35;;;;;;;;;;5060941;28;20052;-53
2021/08/25 08:22:40;;;;;;;7.05;3.10;;;;;;;;;;5059799;28;20071;-54
2021/08/25 08:25:06;;;;;;;7.78;3.38;;;;;;;;;;5060767;28;20062;-53
2021/08/25 08:27:32;;;;;;;11.02;3.60;;;;;;;;;;5058810;28;20043;-52
2021/08/25 08:29:58;;;;;;;7.75;3.10;;;;;;;;;;5060417;28;20029;-53
2021/08/25 08:32:24;;;;;;;7.82;3.42;;;;;;;;;;5060199;28;22000;-54
2021/08/25 08:34:49;;;;;;;7.57;3.17;;;;;;;;;;5060217;28;20036;-55
2021/08/25 08:37:15;;;;;;;12.00;4.03;;;;;;;;;;5058949;28;20040;-54
2021/08/25 08:39:41;;;;;;;6.57;3.20;;;;;;;;;;5058348;28;20468;-55
2021/08/25 08:42:07;;;;;;;9.18;3.63;;;;;;;;;;5059919;28;20083;-55
2021/08/25 08:44:33;;;;;;;9.73;3.15;;;;;;;;;;5058109;28;20036;-55
2021/08/25 08:46:59;;;;;;;7.93;3.55;;;;;;;;;;5059517;28;20135;-54
2021/08/25 08:49:24;;;;;;;6.82;3.22;;;;;;;;;;5059250;28;20043;-54
2021/08/25 08:51:51;;;;;;;11.63;3.53;;;;;;;;;;5059832;28;20032;-54
2021/08/25 08:54:20;;;;;;;7.35;3.15;;;;;;;;;;5059239;28;20028;-54
2021/08/25 08:56:48;;;;;;;6.63;3.25;;;;;;;;;;5058252;28;20045;-53
2021/08/25 08:59:14;;;;;;;17.13;3.90;;;;;;;;;;5090007;28;20079;-52
2021/08/25 09:01:40;;;;;;;9.68;3.75;;;;;;;;;;5060430;28;20168;-54
2021/08/25 09:04:25;;;;;;;7.55;3.33;;;;;;;;;;5059817;28;20443;-55
2021/08/25 09:06:51;;;;;;;9.13;3.38;;;;;;;;;;5057184;28;20048;-54
2021/08/25 09:09:17;;;;;;;6.82;3.10;;;;;;;;;;5058863;28;20044;-54
2021/08/25 09:11:50;;;;;;;8.32;3.45;;;;;;;;;;5058574;28;20085;-54
2021/08/25 09:14:15;;;;;;;;;;;;;;;;;;5060064;28;20032;-54
2021/08/25 09:16:41;;;;;;;12.68;4.10;;;;;;;;;;5059221;28;20529;-55
2021/08/25 09:19:08;;;;;;;10.32;3.85;;;;;;;;;;5058237;28;20151;-51
2021/08/25 09:21:34;;;;;;;9.60;3.90;;;;;;;;;;5057668;28;20063;-53
2021/08/25 09:24:00;;;;;;;8.45;3.92;;;;;;;;;;5059411;28;20037;-56
2021/08/25 09:26:26;;;;;;;7.93;3.78;;;;;;;;;;5057749;28;20048;-52
2021/08/25 09:28:52;;;;;;;9.43;3.45;;;;;;;;;;5058738;28;20048;-54
2021/08/25 09:31:18;;;;;;;11.52;4.13;;;;;;;;;;5058995;28;21915;-54
2021/08/25 09:33:45;;;;;;;10.95;4.05;;;;;;;;;;5059183;28;20067;-54
2021/08/25 09:36:13;;;;;;;16.60;4.05;;;;;;;;;;5058849;28;20164;-52
2021/08/25 09:38:40;;;;;;;8.18;4.10;;;;;;;;;;5057691;28;20037;-54
2021/08/25 09:41:07;;;;;;;6.55;3.88;;;;;;;;;;5044845;28;22226;-53
2021/08/25 09:43:33;;;;;;;10.35;4.63;;;;;;;;;;5038000;28;20794;-53
2021/08/25 09:46:06;;;;;;;8.70;3.92;;;;;;;;;;5037430;28;20037;-54
2021/08/25 09:48:32;;;;;;;4.93;3.03;;;;;;;;;;5037303;28;20048;-55
2021/08/25 09:50:58;;;;;;;14.82;3.97;;;;;;;;;;5038945;28;20036;-54
2021/08/25 09:53:24;;;;;;;9.90;4.40;;;;;;;;;;5038341;28;20048;-54
2021/08/25 09:55:50;;;;;;;7.75;3.85;;;;;;;;;;5038265;28;20037;-51
2021/08/25 09:58:16;;;;;;;12.43;4.20;;;;;;;;;;5037770;28;20037;-54
2021/08/25 10:00:42;;;;;;;8.38;4.10;;;;;;;;;;5037161;28;20112;-54
2021/08/25 10:03:08;;;;;;;9.40;4.57;;;;;;;;;;5038075;28;20135;-52
2021/08/25 10:05:34;;;;;;;13.00;4.10;;;;;;;;;;5037736;28;20036;-54
2021/08/25 10:08:00;;;;;;;8.05;3.90;;;;;;;;;;5037665;28;20074;-56
2021/08/25 10:10:26;;;;;;;9.35;4.35;;;;;;;;;;5037770;28;20041;-52
2021/08/25 10:12:52;;;;;;;11.20;4.35;;;;;;;;;;5038975;28;20037;-54
2021/08/25 10:15:30;;;;;;;10.32;4.65;;;;;;;;;;5037265;28;20060;-52
2021/08/25 10:17:56;;;;;;;8.15;4.15;;;;;;;;;;5037319;28;20510;-54
2021/08/25 10:20:25;;;;;;;7.43;3.80;;;;;;;;;;5036266;28;20051;-54
2021/08/25 10:22:52;;;;;;;9.73;4.20;;;;;;;;;;5038135;28;20040;-53
2021/08/25 10:25:18;;;;;;;9.23;4.35;;;;;;;;;;5037419;28;20083;-54
2021/08/25 10:27:59;;;;;;;7.93;4.25;;;;;;;;;;5051454;28;20428;-55
2021/08/25 10:30:25;;;;;;;12.07;4.78;;;;;;;;;;5037199;28;20095;-54
2021/08/25 10:32:50;;;;;;;8.45;4.60;;;;;;;;;;5037869;28;20045;-54
2021/08/25 10:35:16;;;;;;;10.45;4.93;;;;;;;;;;5037727;28;20044;-52
2021/08/25 10:37:43;;;;;;;8.50;4.40;;;;;;;;;;5037182;28;20040;-51
2021/08/25 10:40:09;;;;;;;10.80;5.13;;;;;;;;;;5038205;28;20053;-54
2021/08/25 10:42:42;;;;;;;8.13;4.80;;;;;;;;;;5037570;28;20053;-55
2021/08/25 10:45:08;;;;;;;8.73;4.28;;;;;;;;;;5037469;28;20060;-54
2021/08/25 10:47:53;;;;;;;10.90;5.20;;;;;;;;;;5036436;28;20033;-51
2021/08/25 10:50:19;;;;;;;12.05;5.40;;;;;;;;;;5037898;28;20029;-54
2021/08/25 10:52:44;;;;;;;12.68;5.18;;;;;;;;;;5035961;28;20052;-54
2021/08/25 10:55:10;;;;;;;13.48;5.45;;;;;;;;;;5037786;28;20049;-54
2021/08/25 10:57:36;;;;;;;13.77;5.28;;;;;;;;;;5035762;28;20052;-53
2021/08/25 11:00:09;;;;;;;12.73;5.30;;;;;;;;;;5037125;28;20039;-54
2021/08/25 11:02:39;;;;;;;14.43;5.22;;;;;;;;;;5036774;28;20717;-54
2021/08/25 11:05:05;;;;;;;11.40;4.78;;;;;;;;;;5037277;28;20045;-51
2021/08/25 11:07:31;;;;;;;9.20;4.93;;;;;;;;;;5036061;28;20951;-54
2021/08/25 11:09:56;;;;;;;10.25;4.93;;;;;;;;;;5037568;28;20116;-54
2021/08/25 11:12:24;;;;;;;9.45;4.95;;;;;;;;;;5036915;28;20513;-53
2021/08/25 11:14:50;;;;;;;17.33;6.07;;;;;;;;;;5068749;28;20055;-52
2021/08/25 11:17:17;;;;;;;11.15;5.32;;;;;;;;;;5036667;28;20052;-53
2021/08/25 11:19:48;;;;;;;16.65;5.32;;;;;;;;;;5036349;28;20730;-53
2021/08/25 11:22:16;;;;;;;13.30;5.72;;;;;;;;;;5036807;28;20135;-54
2021/08/25 11:24:43;;;;;;;13.57;6.15;;;;;;;;;;5038250;28;20033;-53
2021/08/25 11:27:18;;;;;;;14.38;6.10;;;;;;;;;;5037264;28;20155;-54
2021/08/25 11:29:44;;;;;;;11.50;5.25;;;;;;;;;;5035536;28;20055;-54
2021/08/25 11:32:11;;;;;;;13.57;5.90;;;;;;;;;;5036903;28;20478;-55
2021/08/25 11:34:42;;;;;;;8.93;5.20;;;;;;;;;;5036307;28;20049;-54
2021/08/25 11:37:07;;;;;;;10.80;5.25;;;;;;;;;;5037217;28;20551;-53
2021/08/25 11:39:33;;;;;;;15.32;5.97;;;;;;;;;;5035289;28;20045;-54
2021/08/25 11:42:01;;;;;;;12.30;5.40;;;;;;;;;;5057214;28;20056;-54
2021/08/25 11:44:37;;;;;;;10.55;5.18;;;;;;;;;;5056253;28;20165;-53
2021/08/25 11:47:17;;;;;;;13.82;5.63;;;;;;;;;;5056645;28;20043;-54
2021/08/25 11:49:43;;;;;;;9.23;4.95;;;;;;;;;;5055982;28;20131;-54
2021/08/25 11:52:09;;;;;;;16.27;5.43;;;;;;;;;;5057426;28;20059;-51
2021/08/25 11:54:39;;;;;;;11.32;5.80;;;;;;;;;;5056356;28;20071;-53
2021/08/25 11:57:08;;;;;;;11.85;4.90;;;;;;;;;;5057347;28;20086;-53
2021/08/25 11:59:34;;;;;;;10.85;4.32;;;;;;;;;;5055212;28;20849;-51
2021/08/25 12:02:06;;;;;;;10.07;4.22;;;;;;;;;;5064756;28;20056;-54
2021/08/25 12:04:32;;;;;;;7.53;3.87;;;;;;;;;;5056671;28;20048;-54
2021/08/25 12:06:58;;;;;;;9.65;4.47;;;;;;;;;;5056101;28;20109;-54
2021/08/25 12:09:31;;;;;;;9.40;3.95;;;;;;;;;;5056571;28;20028;-53
2021/08/25 12:11:57;;;;;;;7.78;4.25;;;;;;;;;;5056482;28;20079;-52
2021/08/25 12:14:23;;;;;;;11.43;4.43;;;;;;;;;;5055904;28;20123;-55
2021/08/25 12:17:02;;;;;;;8.85;4.40;;;;;;;;;;5056748;28;20045;-51
2021/08/25 12:19:28;;;;;;;18.30;5.47;;;;;;;;;;5056167;28;20048;-55
2021/08/25 12:21:54;;;;;;;8.45;4.07;;;;;;;;;;5057166;28;20087;-54
2021/08/25 12:24:20;;;;;;;10.80;4.47;;;;;;;;;;5055857;28;20366;-54
2021/08/25 12:26:54;;;;;;;10.98;4.03;;;;;;;;;;5058194;28;20435;-53
2021/08/25 12:29:28;;;;;;;8.10;3.65;;;;;;;;;;5057466;28;20052;-54
2021/08/25 12:31:57;;;;;;;8.45;4.00;;;;;;;;;;5055608;28;20043;-54
2021/08/25 12:34:23;;;;;;;10.93;4.00;;;;;;;;;;5056316;28;20090;-51
2021/08/25 12:36:52;;;;;;;11.00;3.80;;;;;;;;;;5056219;28;20170;-56
2021/08/25 12:39:21;;;;;;;8.63;3.88;;;;;;;;;;5054906;28;20078;-56
2021/08/25 12:41:48;;;;;;;7.95;4.13;;;;;;;;;;5056724;28;20512;-55
2021/08/25 12:44:14;;;;;;;8.07;4.00;;;;;;;;;;5056415;28;20048;-54
2021/08/25 12:46:50;;;;;;;8.70;4.43;;;;;;;;;;5059006;28;20041;-56
2021/08/25 12:49:17;;;;;;;8.43;3.70;;;;;;;;;;5057939;28;20079;-54
2021/08/25 12:51:43;;;;;;;10.00;4.53;;;;;;;;;;5058338;28;20075;-56
2021/08/25 12:54:08;;;;;;;10.73;4.60;;;;;;;;;;5059831;28;20138;-55
2021/08/25 12:56:34;;;;;;;9.85;4.72;;;;;;;;;;5058874;28;20413;-56
2021/08/25 12:59:00;;;;;;;11.07;4.70;;;;;;;;;;5058503;28;20049;-58
2021/08/25 13:01:26;;;;;;;10.27;4.95;;;;;;;;;;5058704;28;20056;-54
2021/08/25 13:03:51;;;;;;;8.90;4.75;;;;;;;;;;5060112;28;20586;-54
2021/08/25 13:06:17;;;;;;;10.50;4.30;;;;;;;;;;5058192;28;20040;-54
2021/08/25 13:08:43;;;;;;;12.35;4.63;;;;;;;;;;5058110;28;20081;-55
2021/08/25 13:11:09;;;;;;;14.38;4.95;;;;;;;;;;5059483;28;20072;-57
2021/08/25 13:13:35;;;;;;;9.77;4.70;;;;;;;;;;5058925;28;20056;-55
2021/08/25 13:16:01;;;;;;;12.27;5.30;;;;;;;;;;5058871;28;20055;-55
2021/08/25 13:18:27;;;;;;;10.82;5.07;;;;;;;;;;5057439;28;20041;-54
2021/08/25 13:20:52;;;;;;;15.65;5.15;;;;;;;;;;5059028;28;20471;-55
2021/08/25 13:23:18;;;;;;;9.98;5.20;;;;;;;;;;5059371;28;20045;-54
2021/08/25 13:25:44;;;;;;;13.50;5.43;;;;;;;;;;5058957;28;20400;-54
2021/08/25 13:28:11;;;;;;;17.08;5.72;;;;;;;;;;5058415;28;20068;-54
2021/08/25 13:30:37;;;;;;;16.45;5.68;;;;;;;;;;5058801;28;20604;-55
2021/08/25 13:33:04;;;;;;;10.45;5.70;;;;;;;;;;5058194;28;20055;-54
2021/08/25 13:35:29;;;;;;;15.57;5.25;;;;;;;;;;5058006;28;20505;-51
2021/08/25 13:37:55;;;;;;;15.27;5.43;;;;;;;;;;5058056;28;20073;-51
2021/08/25 13:40:21;;;;;;;10.35;5.25;;;;;;;;;;5057340;28;20060;-52
2021/08/25 13:42:47;;;;;;;12.18;5.45;;;;;;;;;;5058113;28;20530;-51
2021/08/25 13:45:13;;;;;;;12.23;4.97;;;;;;;;;;5059331;28;20039;-53
2021/08/25 13:47:38;;;;;;;10.25;4.60;;;;;;;;;;5055883;28;20485;-52
2021/08/25 13:50:05;;;;;;;11.32;4.65;;;;;;;;;;5058026;28;20044;-52
2021/08/25 13:52:30;;;;;;;8.77;4.55;;;;;;;;;;5058114;28;20447;-55
2021/08/25 13:54:56;;;;;;;12.40;4.18;;;;;;;;;;5055810;28;20040;-56
2021/08/25 13:57:22;;;;;;;8.88;3.90;;;;;;;;;;5057038;28;20060;-53
2021/08/25 13:59:49;;;;;;;6.35;3.63;;;;;;;;;;5057568;28;20595;-56
2021/08/25 14:02:16;;;;;;;6.78;3.80;;;;;;;;;;5054480;28;20131;-58
2021/08/25 14:04:41;;;;;;;5.90;3.38;;;;;;;;;;5058883;28;20032;-55
2021/08/25 14:07:07;;;;;;;11.45;4.15;;;;;;;;;;5059172;28;22075;-54
2021/08/25 14:09:33;;;;;;;9.02;4.00;;;;;;;;;;5058461;28;20047;-54
2021/08/25 14:11:59;;;;;;;14.07;3.78;;;;;;;;;;5058601;28;20047;-54
2021/08/25 14:14:25;;;;;;;6.68;3.42;;;;;;;;;;5058086;28;20036;-56
2021/08/25 14:16:50;;;;;;;9.30;3.65;;;;;;;;;;5058850;28;20174;-54
2021/08/25 14:19:16;;;;;;;7.57;3.10;;;;;;;;;;5059285;28;20090;-51
2021/08/25 14:21:42;;;;;;;8.70;2.92;;;;;;;;;;5058346;28;20061;-52
2021/08/25 14:24:08;;;;;;;10.55;3.13;;;;;;;;;;5058076;28;20036;-54
2021/08/25 14:26:34;;;;;;;14.88;3.15;;;;;;;;;;5058113;28;20041;-52
2021/08/25 14:29:00;;;;;;;7.57;2.70;;;;;;;;;;5057394;28;20437;-54
2021/08/25 14:31:26;;;;;;;9.77;3.05;;;;;;;;;;5056635;28;20040;-52
2021/08/25 14:33:52;;;;;;;10.18;2.88;;;;;;;;;;5058369;28;20033;-51
2021/08/25 14:36:18;;;;;;;5.68;2.42;;;;;;;;;;5057868;28;20078;-53